createdAt,value
2024-02-24T00:02:13.596Z,1.70
2024-02-24T00:04:40.728Z,1.95
2024-02-24T00:07:07.643Z,1.80
2024-02-24T00:09:34.435Z,1.92
2024-02-24T00:12:01.466Z,1.92
2024-02-24T00:14:30.607Z,1.80
2024-02-24T00:16:58.237Z,2.03
2024-02-24T00:19:25.107Z,2.13
2024-02-24T00:21:52.007Z,2.10
2024-02-24T00:24:18.916Z,1.77
2024-02-24T00:26:45.781Z,2.33
2024-02-24T00:29:12.657Z,2.13
2024-02-24T00:31:39.650Z,1.92
2024-02-24T00:34:06.653Z,2.30
2024-02-24T00:36:33.802Z,2.10
2024-02-24T00:39:00.518Z,2.03
2024-02-24T00:41:27.274Z,2.20
2024-02-24T00:43:54.851Z,1.70
2024-02-24T00:46:21.557Z,2.03
2024-02-24T00:48:48.556Z,1.90
2024-02-24T00:51:15.510Z,1.80
2024-02-24T00:53:42.716Z,1.83
2024-02-24T00:56:09.794Z,1.58
2024-02-24T00:58:36.551Z,1.67
2024-02-24T01:01:04.288Z,1.50
2024-02-24T01:03:31.045Z,1.60
2024-02-24T01:05:57.900Z,1.60
2024-02-24T01:08:24.743Z,1.90
2024-02-24T01:10:51.574Z,1.67
2024-02-24T01:13:18.609Z,1.58
2024-02-24T01:15:45.407Z,2.10
2024-02-24T01:18:12.760Z,1.73
2024-02-24T01:20:39.620Z,1.88
2024-02-24T01:23:06.461Z,1.80
2024-02-24T01:25:33.267Z,1.80
2024-02-24T01:28:01.266Z,1.80
2024-02-24T01:30:28.068Z,1.70
2024-02-24T01:32:55.052Z,1.55
2024-02-24T01:35:21.839Z,1.70
2024-02-24T01:37:49.110Z,1.83
2024-02-24T01:40:15.981Z,1.70
2024-02-24T01:42:44.362Z,1.60
2024-02-24T01:45:13.293Z,1.90
2024-02-24T01:47:41.580Z,2.20
2024-02-24T01:50:11.445Z,1.98
2024-02-24T01:52:41.054Z,1.90
2024-02-24T01:55:09.094Z,1.83
2024-02-24T01:57:41.649Z,1.90
2024-02-24T02:00:10.375Z,1.90
2024-02-24T02:02:43.548Z,1.80
2024-02-24T02:05:12.889Z,2.00
2024-02-24T02:07:39.879Z,2.00
2024-02-24T02:10:06.994Z,2.10
2024-02-24T02:12:35.548Z,1.67
2024-02-24T02:15:05.114Z,1.98
2024-02-24T02:17:32.174Z,2.10
2024-02-24T02:20:06.018Z,1.70
2024-02-24T02:22:33.133Z,2.03
2024-02-24T02:25:00.077Z,2.10
2024-02-24T02:27:26.973Z,1.90
2024-02-24T02:29:53.750Z,1.88
2024-02-24T02:32:20.488Z,1.95
2024-02-24T02:34:47.254Z,2.28
2024-02-24T02:37:14.585Z,1.98
2024-02-24T02:39:41.322Z,2.03
2024-02-24T02:42:08.918Z,2.40
2024-02-24T02:44:35.705Z,2.10
2024-02-24T02:47:08.135Z,2.15
2024-02-24T02:49:41.286Z,2.10
2024-02-24T02:52:08.562Z,1.83
2024-02-24T02:54:35.313Z,1.60
2024-02-24T02:57:03.197Z,2.00
2024-02-24T02:59:30.086Z,1.80
2024-02-24T03:01:58.537Z,1.83
2024-02-24T03:04:25.230Z,1.80
2024-02-24T03:06:52.128Z,1.70
2024-02-24T03:09:18.927Z,1.80
2024-02-24T03:11:45.883Z,1.50
2024-02-24T03:14:12.672Z,1.45
2024-02-24T03:17:47.155Z,1.85
2024-02-24T03:20:14.111Z,1.73
2024-02-24T03:22:40.907Z,1.52
2024-02-24T03:25:09.291Z,1.67
2024-02-24T03:27:36.590Z,1.40
2024-02-24T03:30:03.447Z,2.03
2024-02-24T03:32:30.806Z,1.80
2024-02-24T03:34:57.576Z,1.55
2024-02-24T03:37:25.646Z,1.67
2024-02-24T03:39:52.388Z,1.60
2024-02-24T03:42:19.996Z,1.58
2024-02-24T03:44:46.761Z,1.90
2024-02-24T03:47:13.627Z,1.70
2024-02-24T03:49:42.889Z,2.08
2024-02-24T03:52:09.804Z,1.75
2024-02-24T03:54:36.525Z,1.67
2024-02-24T03:57:03.249Z,1.80
2024-02-24T03:59:30.054Z,1.65
2024-02-24T04:01:56.850Z,2.03
2024-02-24T04:04:23.623Z,2.40
2024-02-24T04:06:50.417Z,1.70
2024-02-24T04:09:17.174Z,2.08
2024-02-24T04:11:44.798Z,2.10
2024-02-24T04:14:12.129Z,1.80
2024-02-24T04:16:38.949Z,1.77
2024-02-24T04:19:05.749Z,2.00
2024-02-24T04:21:32.501Z,2.00
2024-02-24T04:23:59.311Z,1.60
2024-02-24T04:26:26.486Z,1.70
2024-02-24T04:28:53.247Z,2.03
2024-02-24T04:31:19.968Z,1.75
2024-02-24T04:33:46.764Z,1.70
2024-02-24T04:36:13.670Z,2.28
2024-02-24T04:38:40.481Z,2.60
2024-02-24T04:41:07.238Z,1.88
2024-02-24T04:43:37.054Z,2.10
2024-02-24T04:46:05.452Z,2.50
2024-02-24T04:48:32.769Z,1.90
2024-02-24T04:51:02.851Z,2.22
2024-02-24T04:53:30.680Z,2.03
2024-02-24T04:55:57.458Z,1.60
2024-02-24T04:58:25.710Z,2.10
2024-02-24T05:00:53.932Z,1.90
2024-02-24T05:03:20.815Z,1.90
2024-02-24T05:05:47.609Z,1.90
2024-02-24T05:08:14.475Z,1.67
2024-02-24T05:10:41.438Z,2.05
2024-02-24T05:13:08.578Z,1.92
2024-02-24T05:15:35.284Z,1.88
2024-02-24T05:18:02.840Z,1.80
2024-02-24T05:20:30.257Z,2.17
2024-02-24T05:22:56.970Z,1.80
2024-02-24T05:25:23.703Z,1.55
2024-02-24T05:27:50.369Z,1.65
2024-02-24T05:30:17.099Z,1.52
2024-02-24T05:32:43.977Z,1.80
2024-02-24T05:35:10.829Z,2.03
2024-02-24T05:37:37.578Z,1.65
2024-02-24T05:40:04.757Z,1.67
2024-02-24T05:42:33.476Z,1.55
2024-02-24T05:45:00.776Z,1.65
2024-02-24T05:47:28.421Z,1.45
2024-02-24T05:49:55.286Z,1.52
2024-02-24T05:52:22.579Z,1.45
2024-02-24T05:54:49.359Z,1.60
2024-02-24T05:57:16.553Z,1.70
2024-02-24T05:59:43.341Z,1.98
2024-02-24T06:02:10.731Z,1.90
2024-02-24T06:04:39.361Z,1.70
2024-02-24T06:07:06.670Z,2.20
2024-02-24T06:09:33.459Z,1.42
2024-02-24T06:12:00.942Z,1.50
2024-02-24T06:14:27.799Z,1.80
2024-02-24T06:16:54.640Z,1.95
2024-02-24T06:19:21.738Z,1.85
2024-02-24T06:21:48.533Z,1.80
2024-02-24T06:24:15.305Z,1.63
2024-02-24T06:26:42.767Z,1.48
2024-02-24T06:29:09.760Z,1.60
2024-02-24T06:31:36.533Z,2.03
2024-02-24T06:34:08.215Z,1.73
2024-02-24T06:36:35.668Z,2.13
2024-02-24T06:39:02.574Z,2.97
2024-02-24T06:41:29.679Z,2.97
2024-02-24T06:43:57.120Z,4.38
2024-02-24T06:46:23.844Z,4.75
2024-02-24T06:48:50.968Z,4.38
2024-02-24T06:51:17.874Z,3.60
2024-02-24T06:53:44.677Z,3.10
2024-02-24T06:56:11.639Z,2.63
2024-02-24T06:58:40.418Z,2.10
2024-02-24T07:01:07.209Z,1.98
2024-02-24T07:03:34.999Z,2.35
2024-02-24T07:06:02.500Z,2.20
2024-02-24T07:08:29.786Z,1.80
2024-02-24T07:10:56.771Z,2.00
2024-02-24T07:13:23.691Z,2.03
2024-02-24T07:15:50.421Z,2.10
2024-02-24T07:18:17.221Z,2.22
2024-02-24T07:20:44.131Z,2.30
2024-02-24T07:23:11.068Z,2.05
2024-02-24T07:25:39.894Z,2.03
2024-02-24T07:28:07.236Z,2.20
2024-02-24T07:30:34.636Z,1.83
2024-02-24T07:33:02.296Z,1.52
2024-02-24T07:35:29.384Z,2.20
2024-02-24T07:37:56.699Z,1.83
2024-02-24T07:40:23.773Z,1.90
2024-02-24T07:42:51.545Z,1.90
2024-02-24T07:45:18.287Z,1.80
2024-02-24T07:47:45.121Z,1.85
2024-02-24T07:50:11.966Z,2.15
2024-02-24T07:52:38.774Z,1.55
2024-02-24T07:55:06.339Z,2.20
2024-02-24T07:57:33.308Z,1.77
2024-02-24T08:00:00.446Z,1.77
2024-02-24T08:02:27.871Z,2.00
2024-02-24T08:04:54.983Z,1.67
2024-02-24T08:07:22.456Z,1.70
2024-02-24T08:09:49.196Z,1.88
2024-02-24T08:12:16.216Z,2.03
2024-02-24T08:14:43.167Z,2.25
2024-02-24T08:17:12.300Z,1.75
2024-02-24T08:19:39.720Z,1.88
2024-02-24T08:22:06.601Z,1.70
2024-02-24T08:24:33.644Z,2.20
2024-02-24T08:27:00.442Z,2.28
2024-02-24T08:29:28.140Z,2.05
2024-02-24T08:31:55.468Z,2.28
2024-02-24T08:34:22.684Z,2.08
2024-02-24T08:36:50.613Z,1.90
2024-02-24T08:39:17.392Z,1.60
2024-02-24T08:41:44.700Z,1.85
2024-02-24T08:44:11.650Z,1.70
2024-02-24T08:46:38.384Z,1.80
2024-02-24T08:49:08.046Z,2.13
2024-02-24T08:51:35.046Z,1.67
2024-02-24T08:54:02.546Z,2.20
2024-02-24T08:56:29.899Z,1.65
2024-02-24T08:58:57.132Z,1.77
2024-02-24T09:01:23.933Z,2.05
2024-02-24T09:03:51.372Z,1.60
2024-02-24T09:06:18.801Z,1.70
2024-02-24T09:08:46.505Z,1.50
2024-02-24T09:11:13.815Z,1.55
2024-02-24T09:13:40.763Z,1.90
2024-02-24T09:16:07.584Z,1.48
2024-02-24T09:18:34.586Z,1.60
2024-02-24T09:21:01.389Z,1.30
2024-02-24T09:23:28.998Z,1.50
2024-02-24T09:25:55.826Z,1.10
2024-02-24T09:28:22.620Z,1.80
2024-02-24T09:30:49.360Z,1.65
2024-02-24T09:33:17.052Z,1.63
2024-02-24T09:35:44.085Z,1.60
2024-02-24T09:38:10.886Z,1.30
2024-02-24T09:40:38.064Z,1.58
2024-02-24T09:43:05.847Z,1.60
2024-02-24T09:45:43.510Z,1.40
2024-02-24T09:48:11.860Z,1.45
2024-02-24T09:50:39.255Z,1.38
2024-02-24T09:53:06.354Z,1.42
2024-02-24T09:55:33.233Z,1.45
2024-02-24T09:58:02.125Z,1.40
2024-02-24T10:00:28.900Z,1.83
2024-02-24T10:02:56.151Z,1.55
2024-02-24T10:05:23.363Z,1.20
2024-02-24T10:07:50.652Z,1.35
2024-02-24T10:10:18.219Z,1.30
2024-02-24T10:13:03.536Z,1.60
2024-02-24T10:15:30.844Z,1.50
2024-02-24T10:17:58.457Z,1.30
2024-02-24T10:20:25.930Z,1.33
2024-02-24T10:22:52.975Z,1.63
2024-02-24T10:25:19.836Z,1.67
2024-02-24T10:27:47.433Z,1.52
2024-02-24T10:30:15.069Z,1.30
2024-02-24T10:32:45.368Z,1.30
2024-02-24T10:35:12.377Z,1.48
2024-02-24T10:37:56.822Z,1.15
2024-02-24T10:40:26.471Z,1.02
2024-02-24T10:42:55.185Z,1.00
2024-02-24T10:45:22.224Z,1.10
2024-02-24T10:47:52.579Z,1.10
2024-02-24T10:50:20.255Z,1.00
2024-02-24T10:52:47.877Z,1.20
2024-02-24T10:55:16.661Z,1.17
2024-02-24T10:57:43.598Z,1.30
2024-02-24T11:00:26.726Z,1.27
2024-02-24T11:02:53.730Z,1.48
2024-02-24T11:05:21.157Z,1.30
2024-02-24T11:07:48.377Z,1.25
2024-02-24T11:10:22.132Z,1.25
2024-02-24T11:12:52.452Z,1.02
2024-02-24T11:15:24.934Z,1.60
2024-02-24T11:17:53.473Z,1.10
2024-02-24T11:20:47.141Z,1.42
2024-02-24T11:23:34.112Z,1.38
2024-02-24T11:26:22.366Z,1.20
2024-02-24T11:29:00.635Z,1.58
2024-02-24T11:31:37.809Z,1.35
2024-02-24T11:34:09.516Z,1.80
2024-02-24T11:36:39.361Z,1.70
2024-02-24T11:39:14.444Z,1.40
2024-02-24T11:41:44.317Z,1.55
2024-02-24T11:44:11.568Z,1.67
2024-02-24T11:46:38.550Z,1.77
2024-02-24T11:49:05.970Z,1.80
2024-02-24T11:51:32.918Z,1.75
2024-02-24T11:53:59.993Z,1.42
2024-02-24T11:56:27.155Z,1.60
2024-02-24T11:58:57.823Z,1.90
2024-02-24T12:01:24.877Z,1.67
2024-02-24T12:03:52.563Z,1.50
2024-02-24T12:06:19.599Z,2.33
2024-02-24T12:08:46.657Z,1.90
2024-02-24T12:11:13.826Z,1.60
2024-02-24T12:13:40.716Z,1.75
2024-02-24T12:16:07.572Z,1.50
2024-02-24T12:18:35.670Z,1.77
2024-02-24T12:21:02.606Z,1.77
2024-02-24T12:23:32.720Z,2.03
2024-02-24T12:26:19.246Z,1.65
2024-02-24T12:28:48.071Z,1.45
2024-02-24T12:31:15.575Z,1.27
2024-02-24T12:33:43.854Z,2.03
2024-02-24T12:36:12.107Z,1.73
2024-02-24T12:38:39.769Z,1.48
2024-02-24T12:41:14.207Z,1.35
2024-02-24T12:43:41.955Z,1.38
2024-02-24T12:46:09.538Z,1.60
2024-02-24T12:48:40.085Z,1.33
2024-02-24T12:51:09.719Z,1.38
2024-02-24T12:53:37.296Z,1.40
2024-02-24T12:56:04.800Z,0.90
2024-02-24T12:58:31.687Z,1.02
2024-02-24T13:00:58.767Z,1.00
2024-02-24T13:03:25.901Z,1.30
2024-02-24T13:05:52.853Z,1.33
2024-02-24T13:08:19.856Z,1.10
2024-02-24T13:10:47.125Z,1.20
2024-02-24T13:13:14.707Z,1.35
2024-02-24T13:15:43.282Z,0.90
2024-02-24T13:18:14.583Z,0.90
2024-02-24T13:20:41.588Z,1.35
2024-02-24T13:23:08.343Z,1.63
2024-02-24T13:25:35.221Z,1.05
2024-02-24T13:28:04.652Z,0.98
2024-02-24T13:30:31.735Z,1.65
2024-02-24T13:32:58.556Z,1.85
2024-02-24T13:35:25.467Z,1.50
2024-02-24T13:37:52.696Z,1.23
2024-02-24T13:40:22.379Z,0.80
2024-02-24T13:42:49.230Z,0.93
2024-02-24T13:45:16.137Z,0.85
2024-02-24T13:47:43.017Z,0.95
2024-02-24T13:50:10.068Z,1.30
2024-02-24T13:52:37.336Z,1.10
2024-02-24T13:55:04.381Z,0.98
2024-02-24T13:57:31.055Z,1.25
2024-02-24T13:59:57.869Z,1.20
2024-02-24T14:02:26.067Z,1.10
2024-02-24T14:04:52.991Z,1.35
2024-02-24T14:07:19.813Z,1.17
2024-02-24T14:09:47.005Z,1.00
2024-02-24T14:12:13.878Z,1.35
2024-02-24T14:14:40.720Z,0.90
2024-02-24T14:17:07.517Z,1.30
2024-02-24T14:19:34.377Z,1.10
2024-02-24T14:22:01.745Z,1.38
2024-02-24T14:24:28.791Z,1.17
2024-02-24T14:26:56.681Z,1.60
2024-02-24T14:29:24.958Z,1.40
2024-02-24T14:31:51.852Z,1.08
2024-02-24T14:34:18.904Z,1.20
2024-02-24T14:36:47.210Z,1.13
2024-02-24T14:39:14.674Z,1.17
2024-02-24T14:41:41.642Z,1.15
2024-02-24T14:44:08.548Z,1.50
2024-02-24T14:46:54.658Z,1.40
2024-02-24T14:49:21.520Z,1.35
2024-02-24T14:51:48.817Z,1.30
2024-02-24T14:54:15.705Z,1.08
2024-02-24T14:56:42.691Z,1.10
2024-02-24T14:59:09.765Z,1.30
2024-02-24T15:01:39.610Z,1.00
2024-02-24T15:04:06.729Z,1.20
2024-02-24T15:06:33.888Z,1.17
2024-02-24T15:09:00.777Z,1.08
2024-02-24T15:11:27.680Z,1.20
2024-02-24T15:13:54.631Z,1.13
2024-02-24T15:16:21.483Z,1.30
2024-02-24T15:18:48.700Z,1.42
2024-02-24T15:21:15.710Z,1.45
2024-02-24T15:23:43.189Z,1.30
2024-02-24T15:26:12.251Z,1.60
2024-02-24T15:28:39.190Z,2.03
2024-02-24T15:31:06.543Z,1.67
2024-02-24T15:33:33.634Z,1.20
2024-02-24T15:36:01.616Z,1.20
2024-02-24T15:38:30.274Z,1.08
2024-02-24T15:40:57.012Z,1.48
2024-02-24T15:43:24.404Z,1.58
2024-02-24T15:45:51.786Z,1.60
2024-02-24T15:48:18.693Z,2.42
2024-02-24T15:50:45.530Z,2.80
2024-02-24T15:53:13.952Z,3.15
2024-02-24T15:55:40.694Z,3.08
2024-02-24T15:58:07.644Z,2.90
2024-02-24T16:00:34.418Z,2.45
2024-02-24T16:03:04.947Z,2.35
2024-02-24T16:05:32.593Z,2.78
2024-02-24T16:07:59.591Z,2.50
2024-02-24T16:10:26.663Z,1.67
2024-02-24T16:12:55.576Z,1.98
2024-02-24T16:15:24.166Z,1.55
2024-02-24T16:17:51.046Z,1.10
2024-02-24T16:20:19.882Z,1.48
2024-02-24T16:22:46.722Z,1.50
2024-02-24T16:25:17.100Z,1.52
2024-02-24T16:27:43.929Z,1.42
2024-02-24T16:30:10.997Z,1.65
2024-02-24T16:32:38.277Z,1.30
2024-02-24T16:35:05.186Z,1.30
2024-02-24T16:37:32.642Z,1.20
2024-02-24T16:39:59.958Z,1.20
2024-02-24T16:42:26.719Z,1.38
2024-02-24T16:44:53.508Z,1.60
2024-02-24T16:47:20.410Z,2.10
2024-02-24T16:49:50.085Z,1.60
2024-02-24T16:52:17.035Z,3.03
2024-02-24T16:54:43.836Z,1.88
2024-02-24T16:57:11.104Z,2.10
2024-02-24T16:59:39.945Z,2.30
2024-02-24T17:02:06.954Z,2.08
2024-02-24T17:04:34.975Z,1.63
2024-02-24T17:07:02.116Z,2.15
2024-02-24T17:09:28.849Z,2.65
2024-02-24T17:11:58.440Z,2.85
2024-02-24T17:14:25.546Z,2.58
2024-02-24T17:16:52.522Z,3.83
2024-02-24T17:19:19.851Z,3.20
2024-02-24T17:21:46.811Z,3.25
2024-02-24T17:24:13.745Z,3.80
2024-02-24T17:26:42.167Z,3.55
2024-02-24T17:29:09.032Z,4.35
2024-02-24T17:31:35.767Z,3.80
2024-02-24T17:34:02.698Z,3.75
2024-02-24T17:36:31.953Z,4.30
2024-02-24T17:38:59.154Z,3.80
2024-02-24T17:41:27.613Z,3.92
2024-02-24T17:43:54.286Z,4.05
2024-02-24T17:46:21.027Z,3.53
2024-02-24T17:48:48.215Z,3.70
2024-02-24T17:51:15.984Z,3.70
2024-02-24T17:53:43.409Z,3.20
2024-02-24T17:56:10.231Z,5.57
2024-02-24T17:58:44.536Z,5.50
2024-02-24T18:01:14.667Z,4.18
2024-02-24T18:03:42.731Z,3.63
2024-02-24T18:06:09.639Z,3.55
2024-02-24T18:08:36.609Z,3.47
2024-02-24T18:11:03.386Z,3.70
2024-02-24T18:13:30.586Z,3.60
2024-02-24T18:15:57.365Z,4.00
2024-02-24T18:18:27.540Z,3.65
2024-02-24T18:20:54.469Z,3.75
2024-02-24T18:23:21.585Z,3.30
2024-02-24T18:25:48.729Z,3.60
2024-02-24T18:28:15.975Z,3.25
2024-02-24T18:30:45.115Z,3.65
2024-02-24T18:33:12.087Z,3.63
2024-02-24T18:35:41.994Z,3.38
2024-02-24T18:38:10.070Z,3.10
2024-02-24T18:40:37.091Z,3.30
2024-02-24T18:43:03.831Z,3.30
2024-02-24T18:45:30.788Z,3.45
2024-02-24T18:47:59.711Z,3.47
2024-02-24T18:50:26.606Z,3.95
2024-02-24T18:52:53.721Z,3.78
2024-02-24T18:55:20.531Z,3.40
2024-02-24T18:57:47.496Z,2.58
2024-02-24T19:00:14.807Z,2.47
2024-02-24T19:02:43.366Z,2.40
2024-02-24T19:05:12.033Z,2.30
2024-02-24T19:07:45.145Z,1.80
2024-02-24T19:10:13.885Z,2.17
2024-02-24T19:12:40.683Z,2.10
2024-02-24T19:15:08.201Z,1.90
2024-02-24T19:17:35.118Z,2.05
2024-02-24T19:20:05.440Z,2.30
2024-02-24T19:22:32.960Z,2.40
2024-02-24T19:25:00.189Z,2.60
2024-02-24T19:27:26.936Z,2.83
2024-02-24T19:29:54.226Z,3.00
2024-02-24T19:32:21.135Z,2.85
2024-02-24T19:34:48.423Z,3.05
2024-02-24T19:37:15.252Z,2.53
2024-02-24T19:39:42.412Z,3.53
2024-02-24T19:42:11.478Z,3.45
2024-02-24T19:44:38.983Z,3.65
2024-02-24T19:47:10.421Z,3.45
2024-02-24T19:49:37.486Z,3.30
2024-02-24T19:52:04.785Z,3.13
2024-02-24T19:54:31.745Z,2.88
2024-02-24T19:56:59.356Z,2.97
2024-02-24T19:59:29.568Z,3.30
2024-02-24T20:01:56.370Z,3.03
2024-02-24T20:04:23.110Z,3.65
2024-02-24T20:06:50.147Z,3.35
2024-02-24T20:09:17.900Z,3.83
2024-02-24T20:11:44.755Z,3.60
2024-02-24T20:14:12.814Z,3.35
2024-02-24T20:16:39.566Z,3.50
2024-02-24T20:19:06.893Z,3.05
2024-02-24T20:21:34.043Z,3.67
2024-02-24T20:24:02.218Z,2.78
2024-02-24T20:26:32.438Z,3.22
2024-02-24T20:28:59.276Z,3.22
2024-02-24T20:31:27.386Z,2.60
2024-02-24T20:34:00.578Z,2.85
2024-02-24T20:36:35.178Z,2.92
2024-02-24T20:39:02.467Z,2.83
2024-02-24T20:41:32.375Z,3.17
2024-02-24T20:44:01.444Z,3.53
2024-02-24T20:46:28.954Z,2.50
2024-02-24T20:48:56.911Z,2.97
2024-02-24T20:51:23.725Z,3.30
2024-02-24T20:53:50.831Z,3.25
2024-02-24T20:56:18.600Z,3.28
2024-02-24T20:58:45.670Z,3.03
2024-02-24T21:01:13.543Z,2.78
2024-02-24T21:03:41.767Z,2.50
2024-02-24T21:06:09.135Z,2.75
2024-02-24T21:08:39.143Z,2.65
2024-02-24T21:11:08.067Z,2.35
2024-02-24T21:13:35.431Z,2.63
2024-02-24T21:16:03.421Z,2.47
2024-02-24T21:18:32.326Z,3.25
2024-02-24T21:20:59.915Z,2.90
2024-02-24T21:23:26.871Z,3.22
2024-02-24T21:25:54.093Z,2.67
2024-02-24T21:28:20.876Z,3.08
2024-02-24T21:30:48.619Z,3.08
2024-02-24T21:33:17.558Z,3.08
2024-02-24T21:35:44.603Z,2.83
2024-02-24T21:38:12.602Z,3.20
2024-02-24T21:40:39.308Z,3.25
2024-02-24T21:43:06.526Z,3.50
2024-02-24T21:45:33.692Z,3.47
2024-02-24T21:48:00.676Z,2.70
2024-02-24T21:50:27.667Z,2.67
2024-02-24T21:52:54.423Z,2.63
2024-02-24T21:55:24.949Z,3.03
2024-02-24T21:57:52.010Z,2.55
2024-02-24T22:00:20.356Z,2.65
2024-02-24T22:02:51.287Z,2.10
2024-02-24T22:05:19.136Z,2.60
2024-02-24T22:07:46.279Z,2.40
2024-02-24T22:10:13.751Z,2.63
2024-02-24T22:12:41.439Z,2.22
2024-02-24T22:15:13.693Z,2.33
2024-02-24T22:17:42.773Z,2.22
2024-02-24T22:20:10.801Z,2.10
2024-02-24T22:22:37.650Z,2.42
2024-02-24T22:25:04.997Z,2.20
2024-02-24T22:27:32.091Z,2.20
2024-02-24T22:30:08.460Z,1.98
2024-02-24T22:32:43.228Z,2.00
2024-02-24T22:35:10.785Z,2.60
2024-02-24T22:37:38.236Z,1.60
2024-02-24T22:40:05.936Z,1.83
2024-02-24T22:42:34.725Z,2.10
2024-02-24T22:45:03.011Z,1.65
2024-02-24T22:47:30.610Z,2.00
2024-02-24T22:49:57.665Z,2.10
2024-02-24T22:52:24.452Z,2.08
2024-02-24T22:54:51.294Z,2.00
2024-02-24T22:57:18.531Z,1.90
2024-02-24T22:59:45.358Z,1.80
2024-02-24T23:02:12.515Z,1.80
2024-02-24T23:04:39.835Z,2.00
2024-02-24T23:07:06.789Z,1.55
2024-02-24T23:09:33.620Z,1.80
2024-02-24T23:12:00.523Z,1.80
2024-02-24T23:14:29.640Z,1.63
2024-02-24T23:16:57.825Z,1.85
2024-02-24T23:19:26.369Z,1.75
2024-02-24T23:21:54.183Z,1.98
2024-02-24T23:24:21.619Z,1.80
2024-02-24T23:26:52.829Z,2.10
2024-02-24T23:29:19.960Z,1.80
2024-02-24T23:31:46.827Z,1.90
2024-02-24T23:34:14.625Z,2.20
2024-02-24T23:36:41.698Z,2.50
2024-02-24T23:39:09.266Z,2.67
2024-02-24T23:41:36.480Z,2.55
2024-02-24T23:44:04.177Z,2.30
2024-02-24T23:46:30.874Z,2.58
2024-02-24T23:48:58.054Z,2.60
2024-02-24T23:51:24.955Z,2.70
2024-02-24T23:53:51.920Z,2.58
2024-02-24T23:56:22.993Z,2.60
2024-02-24T23:58:50.806Z,2.60
